Time;durP1;ratioP1;P1;durP2;ratioP2;P2;SDS_P1;SDS_P2;PMS_P1;PMS_P2;Temp;Humidity;BMP_temperature;BMP_pressure;BME280_temperature;BME280_humidity;BME280_pressure;Samples;Min_cycle;Max_cycle;Signal;HPM_P1;HPM_P2
2023/09/09 00:02:05;;;;;;;10.77;8.50;;;;;;;;;;5053127;28;20473;-57
2023/09/09 00:04:32;;;;;;;10.77;8.37;;;;;;;;;;5052186;28;20457;-56
2023/09/09 00:07:02;;;;;;;10.60;9.50;;;;;;;;;;5052800;28;20462;-59
2023/09/09 00:09:30;;;;;;;9.57;8.60;;;;;;;;;;5053183;28;20804;-58
2023/09/09 00:11:57;;;;;;;9.00;8.00;;;;;;;;;;5052960;28;20809;-56
2023/09/09 00:14:25;;;;;;;9.13;8.23;;;;;;;;;;5052946;28;20489;-55
2023/09/09 00:16:54;;;;;;;9.40;8.50;;;;;;;;;;5052110;28;20785;-58
2023/09/09 00:19:24;;;;;;;9.70;8.40;;;;;;;;;;5052639;28;20509;-57
2023/09/09 00:21:51;;;;;;;9.87;8.30;;;;;;;;;;5052806;28;20850;-58
2023/09/09 00:24:18;;;;;;;9.10;8.20;;;;;;;;;;5052336;28;21003;-59
2023/09/09 00:26:45;;;;;;;9.50;8.70;;;;;;;;;;5051868;28;20541;-58
2023/09/09 00:29:13;;;;;;;9.30;8.40;;;;;;;;;;5052696;28;20523;-57
2023/09/09 00:31:40;;;;;;;10.00;9.10;;;;;;;;;;5052251;28;20469;-56
2023/09/09 00:34:09;;;;;;;9.40;8.50;;;;;;;;;;5052448;28;20566;-57
2023/09/09 00:36:36;;;;;;;9.37;8.47;;;;;;;;;;5051998;28;20491;-58
2023/09/09 00:39:04;;;;;;;9.93;8.97;;;;;;;;;;5052485;28;21023;-58
2023/09/09 00:41:31;;;;;;;9.67;8.87;;;;;;;;;;5052510;28;20444;-59
2023/09/09 00:43:58;;;;;;;9.53;8.63;;;;;;;;;;5052179;28;20493;-57
2023/09/09 00:46:26;;;;;;;8.63;7.80;;;;;;;;;;5051975;28;20826;-56
2023/09/09 00:48:54;;;;;;;8.70;7.90;;;;;;;;;;5050692;28;20932;-58
2023/09/09 00:51:23;;;;;;;8.60;7.70;;;;;;;;;;5051728;28;20893;-57
2023/09/09 00:53:50;;;;;;;8.97;8.07;;;;;;;;;;5050930;28;20461;-58
2023/09/09 00:56:17;;;;;;;9.20;7.70;;;;;;;;;;5051699;28;21025;-55
2023/09/09 00:58:44;;;;;;;8.90;8.20;;;;;;;;;;5051532;28;20986;-57
2023/09/09 01:01:12;;;;;;;10.10;9.10;;;;;;;;;;5051926;28;20503;-57
2023/09/09 01:03:39;;;;;;;10.33;8.90;;;;;;;;;;5050924;28;20465;-59
2023/09/09 01:06:07;;;;;;;8.07;7.33;;;;;;;;;;5051330;28;20930;-60
2023/09/09 01:08:35;;;;;;;8.70;7.90;;;;;;;;;;5049954;28;20995;-57
2023/09/09 01:11:03;;;;;;;9.30;8.40;;;;;;;;;;5050445;28;20465;-55
2023/09/09 01:13:30;;;;;;;8.33;7.63;;;;;;;;;;5050850;28;20976;-59
2023/09/09 01:15:58;;;;;;;9.03;8.10;;;;;;;;;;5043309;28;20499;-57
2023/09/09 01:18:25;;;;;;;8.93;8.13;;;;;;;;;;5048866;28;20959;-57
2023/09/09 01:20:59;;;;;;;9.63;8.63;;;;;;;;;;5050430;28;21165;-56
2023/09/09 01:23:28;;;;;;;9.70;8.70;;;;;;;;;;5050805;28;20461;-56
2023/09/09 01:25:55;;;;;;;9.33;8.43;;;;;;;;;;5050485;28;20473;-58
2023/09/09 01:28:23;;;;;;;9.50;8.50;;;;;;;;;;5049412;28;20461;-56
2023/09/09 01:30:50;;;;;;;8.77;7.80;;;;;;;;;;5033568;28;20955;-57
2023/09/09 01:33:17;;;;;;;9.70;8.90;;;;;;;;;;5050107;28;20493;-56
2023/09/09 01:35:45;;;;;;;10.60;8.30;;;;;;;;;;5049295;28;20469;-56
2023/09/09 01:38:12;;;;;;;8.60;7.80;;;;;;;;;;5049803;28;20469;-56
2023/09/09 01:40:41;;;;;;;9.60;8.60;;;;;;;;;;5049372;28;21088;-55
2023/09/09 01:43:08;;;;;;;8.60;7.80;;;;;;;;;;5049356;28;20445;-58
2023/09/09 01:45:35;;;;;;;9.07;8.17;;;;;;;;;;5049260;28;20991;-55
2023/09/09 01:48:04;;;;;;;9.10;8.20;;;;;;;;;;5050662;28;20473;-58
2023/09/09 01:50:32;;;;;;;9.87;8.80;;;;;;;;;;5050594;28;20445;-56
2023/09/09 01:52:59;;;;;;;9.43;8.47;;;;;;;;;;5050979;28;20992;-55
2023/09/09 01:55:27;;;;;;;8.30;7.50;;;;;;;;;;5050228;28;20964;-54
2023/09/09 01:57:55;;;;;;;9.00;8.10;;;;;;;;;;5050538;28;20935;-55
2023/09/09 02:00:23;;;;;;;10.47;8.57;;;;;;;;;;5050392;28;20995;-58
2023/09/09 02:02:50;;;;;;;9.87;8.87;;;;;;;;;;5050609;28;20471;-56
2023/09/09 02:05:17;;;;;;;9.13;8.33;;;;;;;;;;5050814;28;20496;-58
2023/09/09 02:07:44;;;;;;;9.47;8.67;;;;;;;;;;5049825;28;20473;-55
2023/09/09 02:10:11;;;;;;;8.93;8.03;;;;;;;;;;5050304;28;20469;-56
2023/09/09 02:12:39;;;;;;;10.63;8.63;;;;;;;;;;5050205;28;20499;-56
2023/09/09 02:15:09;;;;;;;9.27;8.47;;;;;;;;;;5050230;28;20511;-56
2023/09/09 02:17:37;;;;;;;9.23;8.33;;;;;;;;;;5049442;28;20457;-54
2023/09/09 02:20:05;;;;;;;9.70;8.80;;;;;;;;;;5050118;28;20562;-56
2023/09/09 02:22:33;;;;;;;9.10;7.73;;;;;;;;;;5050330;28;20481;-56
2023/09/09 02:25:00;;;;;;;7.50;6.80;;;;;;;;;;5050162;28;20523;-58
2023/09/09 02:27:27;;;;;;;9.03;8.23;;;;;;;;;;5049311;28;20480;-57
2023/09/09 02:29:55;;;;;;;9.77;8.77;;;;;;;;;;5050671;28;20466;-58
2023/09/09 02:32:23;;;;;;;8.43;7.60;;;;;;;;;;5050670;28;20878;-57
2023/09/09 02:34:51;;;;;;;8.97;8.07;;;;;;;;;;5050312;28;20893;-57
2023/09/09 02:37:19;;;;;;;9.63;8.03;;;;;;;;;;5049893;28;20448;-59
2023/09/09 02:39:46;;;;;;;8.57;7.67;;;;;;;;;;5050108;28;20497;-59
2023/09/09 02:42:14;;;;;;;8.70;7.90;;;;;;;;;;5050290;28;20605;-59
2023/09/09 02:44:42;;;;;;;8.47;7.70;;;;;;;;;;5049951;28;20537;-57
2023/09/09 02:47:10;;;;;;;10.60;7.20;;;;;;;;;;5049921;28;20531;-57
2023/09/09 02:49:38;;;;;;;9.47;7.80;;;;;;;;;;5050096;28;20473;-59
2023/09/09 02:52:06;;;;;;;8.80;8.00;;;;;;;;;;5050142;28;20466;-56
2023/09/09 02:54:34;;;;;;;9.50;8.27;;;;;;;;;;5049832;28;20896;-59
2023/09/09 02:57:03;;;;;;;8.80;7.90;;;;;;;;;;5049943;28;20499;-58
2023/09/09 02:59:31;;;;;;;9.70;8.80;;;;;;;;;;5049803;28;20476;-57
2023/09/09 03:01:58;;;;;;;8.83;8.03;;;;;;;;;;5050002;28;20457;-56
2023/09/09 03:04:25;;;;;;;8.53;7.77;;;;;;;;;;5095227;22;20485;-56
2023/09/09 03:06:54;;;;;;;8.73;7.83;;;;;;;;;;5029121;28;20472;-56
2023/09/09 03:09:22;;;;;;;8.77;7.87;;;;;;;;;;5029503;28;20438;-56
2023/09/09 03:11:49;;;;;;;9.03;7.90;;;;;;;;;;5029816;28;20537;-57
2023/09/09 03:14:16;;;;;;;7.63;6.93;;;;;;;;;;5029553;28;20489;-57
2023/09/09 03:16:43;;;;;;;9.43;8.43;;;;;;;;;;5029381;28;20470;-57
2023/09/09 03:19:11;;;;;;;8.10;7.30;;;;;;;;;;5028701;28;20497;-57
2023/09/09 03:21:38;;;;;;;8.73;7.87;;;;;;;;;;5029559;28;20496;-57
2023/09/09 03:24:07;;;;;;;8.07;7.20;;;;;;;;;;5029064;28;20894;-56
2023/09/09 03:26:34;;;;;;;10.53;8.40;;;;;;;;;;5029319;28;20473;-57
2023/09/09 03:29:01;;;;;;;8.97;8.07;;;;;;;;;;5029870;28;20450;-57
2023/09/09 03:31:29;;;;;;;9.00;7.93;;;;;;;;;;5030011;28;20466;-57
2023/09/09 03:33:56;;;;;;;15.00;7.97;;;;;;;;;;5029604;28;20527;-56
2023/09/09 03:36:23;;;;;;;9.00;8.10;;;;;;;;;;5029284;28;20945;-57
2023/09/09 03:38:50;;;;;;;9.47;8.67;;;;;;;;;;5032366;28;20473;-57
2023/09/09 03:41:19;;;;;;;8.50;7.70;;;;;;;;;;5033025;28;20572;-57
2023/09/09 03:43:46;;;;;;;8.37;7.37;;;;;;;;;;5033399;28;20501;-57
2023/09/09 03:46:13;;;;;;;8.57;7.67;;;;;;;;;;5032753;28;20474;-56
2023/09/09 03:48:41;;;;;;;8.20;7.40;;;;;;;;;;5032906;28;20438;-57
2023/09/09 03:51:08;;;;;;;8.00;7.30;;;;;;;;;;5033150;28;20994;-58
2023/09/09 03:53:35;;;;;;;8.87;7.30;;;;;;;;;;5032850;28;20498;-56
2023/09/09 03:56:02;;;;;;;7.93;7.23;;;;;;;;;;5032129;28;20442;-56
2023/09/09 03:58:31;;;;;;;9.80;8.47;;;;;;;;;;5032638;28;20536;-56
2023/09/09 04:01:05;;;;;;;8.10;7.30;;;;;;;;;;5032608;28;20901;-57
2023/09/09 04:03:34;;;;;;;9.40;7.60;;;;;;;;;;5032666;28;20545;-56
2023/09/09 04:06:03;;;;;;;8.33;7.53;;;;;;;;;;5032596;28;20508;-57
2023/09/09 04:08:31;;;;;;;8.37;7.53;;;;;;;;;;5032693;28;20967;-58
2023/09/09 04:10:58;;;;;;;8.63;7.73;;;;;;;;;;5032672;28;20444;-57
2023/09/09 04:13:25;;;;;;;8.87;8.07;;;;;;;;;;5032558;28;20452;-56
2023/09/09 04:15:55;;;;;;;7.77;6.90;;;;;;;;;;5032005;28;20450;-56
2023/09/09 04:18:22;;;;;;;9.40;7.63;;;;;;;;;;5031641;28;20949;-57
2023/09/09 04:20:49;;;;;;;8.10;7.40;;;;;;;;;;5032485;28;20958;-57
2023/09/09 04:23:17;;;;;;;17.33;8.43;;;;;;;;;;5029323;28;20994;-57
2023/09/09 04:25:44;;;;;;;8.63;7.20;;;;;;;;;;5027633;28;20474;-56
2023/09/09 04:28:12;;;;;;;8.10;7.27;;;;;;;;;;5032032;28;20929;-58
2023/09/09 04:30:39;;;;;;;8.30;7.50;;;;;;;;;;5032361;28;20462;-57
2023/09/09 04:33:11;;;;;;;7.90;7.10;;;;;;;;;;5031998;28;20448;-56
2023/09/09 04:35:38;;;;;;;7.57;6.80;;;;;;;;;;5031953;28;20443;-56
2023/09/09 04:38:05;;;;;;;8.47;7.73;;;;;;;;;;5031812;28;20438;-56
2023/09/09 04:40:33;;;;;;;11.33;7.80;;;;;;;;;;5032446;28;20524;-56
2023/09/09 04:43:00;;;;;;;8.27;7.50;;;;;;;;;;5031700;28;20470;-57
2023/09/09 04:45:27;;;;;;;7.23;6.53;;;;;;;;;;5031839;28;20517;-56
2023/09/09 04:47:54;;;;;;;8.60;7.53;;;;;;;;;;5031628;28;20478;-57
2023/09/09 04:50:23;;;;;;;8.50;7.57;;;;;;;;;;5031345;28;20470;-56
2023/09/09 04:52:50;;;;;;;8.17;7.47;;;;;;;;;;5031493;28;20987;-57
2023/09/09 04:55:18;;;;;;;13.93;8.27;;;;;;;;;;5032095;28;20489;-58
2023/09/09 04:57:45;;;;;;;7.90;7.10;;;;;;;;;;5031540;28;20481;-56
2023/09/09 05:00:12;;;;;;;6.67;5.97;;;;;;;;;;5031987;28;20469;-58
2023/09/09 05:02:41;;;;;;;8.40;7.60;;;;;;;;;;5031363;28;20846;-57
2023/09/09 05:05:09;;;;;;;7.80;7.00;;;;;;;;;;5030988;28;20482;-57
2023/09/09 05:07:38;;;;;;;8.43;7.63;;;;;;;;;;5030482;28;20467;-56
2023/09/09 05:10:06;;;;;;;7.57;6.87;;;;;;;;;;5031685;28;20630;-57
2023/09/09 05:12:33;;;;;;;8.23;7.43;;;;;;;;;;5031798;28;20478;-56
2023/09/09 05:15:00;;;;;;;8.50;7.70;;;;;;;;;;5031565;28;20477;-56
2023/09/09 05:17:28;;;;;;;8.97;8.07;;;;;;;;;;5030571;28;20470;-56
2023/09/09 05:19:55;;;;;;;7.80;7.10;;;;;;;;;;5030313;28;20470;-56
2023/09/09 05:22:22;;;;;;;7.93;7.10;;;;;;;;;;5031276;28;20438;-56
2023/09/09 05:24:51;;;;;;;7.87;7.10;;;;;;;;;;5030680;28;20548;-56
2023/09/09 05:27:18;;;;;;;10.50;7.67;;;;;;;;;;5027832;28;20470;-56
2023/09/09 05:29:45;;;;;;;8.33;7.53;;;;;;;;;;5031211;28;20540;-57
2023/09/09 05:32:12;;;;;;;8.90;7.53;;;;;;;;;;5030325;28;20953;-57
2023/09/09 05:34:40;;;;;;;7.80;7.00;;;;;;;;;;5030288;28;20461;-56
2023/09/09 05:37:07;;;;;;;7.90;7.07;;;;;;;;;;5030615;28;20536;-56
2023/09/09 05:39:34;;;;;;;7.80;6.97;;;;;;;;;;5030453;28;20466;-56
2023/09/09 05:42:05;;;;;;;8.30;7.47;;;;;;;;;;5030080;28;20577;-56
2023/09/09 05:44:32;;;;;;;7.67;6.40;;;;;;;;;;5029760;28;20481;-56
2023/09/09 05:46:59;;;;;;;7.60;6.90;;;;;;;;;;5028637;28;20478;-57
2023/09/09 05:49:27;;;;;;;8.30;7.50;;;;;;;;;;5028943;28;20446;-57
2023/09/09 05:51:54;;;;;;;8.17;7.40;;;;;;;;;;5028548;28;20470;-56
2023/09/09 05:54:21;;;;;;;7.87;7.10;;;;;;;;;;5028949;28;20481;-57
2023/09/09 05:56:49;;;;;;;7.90;7.10;;;;;;;;;;5028251;28;20967;-57
2023/09/09 05:59:17;;;;;;;8.60;7.80;;;;;;;;;;5029019;28;20862;-57
2023/09/09 06:01:44;;;;;;;8.07;7.33;;;;;;;;;;5029058;28;20505;-57
2023/09/09 06:04:12;;;;;;;6.90;6.20;;;;;;;;;;5029617;28;20525;-57
2023/09/09 06:06:39;;;;;;;7.77;7.00;;;;;;;;;;5027443;28;20819;-56
2023/09/09 06:09:06;;;;;;;8.60;7.70;;;;;;;;;;5029399;28;20877;-56
2023/09/09 06:11:33;;;;;;;7.63;6.80;;;;;;;;;;5028877;28;20466;-56
2023/09/09 06:14:01;;;;;;;10.03;8.10;;;;;;;;;;5028548;28;20881;-56
2023/09/09 06:16:31;;;;;;;8.60;7.50;;;;;;;;;;5028309;28;20449;-56
2023/09/09 06:18:58;;;;;;;8.00;7.27;;;;;;;;;;5028227;28;20442;-57
2023/09/09 06:21:27;;;;;;;8.57;6.80;;;;;;;;;;5028520;28;20551;-56
2023/09/09 06:23:55;;;;;;;8.87;8.07;;;;;;;;;;5027042;28;20498;-57
2023/09/09 06:26:22;;;;;;;8.53;7.60;;;;;;;;;;5030873;28;20521;-56
2023/09/09 06:28:49;;;;;;;8.70;7.80;;;;;;;;;;5029978;28;20473;-56
2023/09/09 06:31:16;;;;;;;8.30;7.30;;;;;;;;;;5030059;28;20496;-56
2023/09/09 06:33:45;;;;;;;7.60;6.83;;;;;;;;;;5029255;28;20498;-57
2023/09/09 06:36:12;;;;;;;8.50;7.47;;;;;;;;;;5029958;28;20531;-56
2023/09/09 06:38:40;;;;;;;8.00;7.20;;;;;;;;;;5029692;28;20615;-57
2023/09/09 06:41:07;;;;;;;8.07;7.00;;;;;;;;;;5029224;28;20571;-56
2023/09/09 06:43:35;;;;;;;8.20;7.50;;;;;;;;;;5029026;28;20470;-55
2023/09/09 06:46:02;;;;;;;7.70;7.00;;;;;;;;;;5028828;28;20512;-56
2023/09/09 06:48:30;;;;;;;8.97;8.13;;;;;;;;;;5028304;28;20442;-56
2023/09/09 06:50:58;;;;;;;7.87;7.07;;;;;;;;;;5027117;28;20496;-56
2023/09/09 06:53:25;;;;;;;8.87;7.37;;;;;;;;;;5028822;28;20503;-57
2023/09/09 06:55:53;;;;;;;8.43;7.60;;;;;;;;;;5029269;28;20521;-56
2023/09/09 06:58:20;;;;;;;7.13;6.43;;;;;;;;;;5030195;28;20470;-56
2023/09/09 07:00:50;;;;;;;7.90;7.20;;;;;;;;;;5029130;28;20502;-56
2023/09/09 07:03:18;;;;;;;8.20;7.50;;;;;;;;;;5024672;28;20498;-57
2023/09/09 07:05:45;;;;;;;11.60;8.10;;;;;;;;;;5027366;28;20470;-56
2023/09/09 07:08:14;;;;;;;7.87;7.07;;;;;;;;;;5026967;28;20486;-57
2023/09/09 07:10:49;;;;;;;9.07;7.80;;;;;;;;;;5022624;28;20446;-56
2023/09/09 07:13:16;;;;;;;7.93;7.13;;;;;;;;;;5028179;28;20537;-58
2023/09/09 07:15:44;;;;;;;8.13;7.10;;;;;;;;;;5030932;28;20458;-56
2023/09/09 07:18:11;;;;;;;7.47;6.70;;;;;;;;;;5029542;28;20477;-56
2023/09/09 07:20:39;;;;;;;7.67;6.97;;;;;;;;;;5029409;28;20521;-56
2023/09/09 07:23:06;;;;;;;7.90;7.10;;;;;;;;;;5029401;28;20446;-56
2023/09/09 07:25:36;;;;;;;8.10;7.30;;;;;;;;;;5027445;28;20454;-56
2023/09/09 07:28:03;;;;;;;8.13;7.33;;;;;;;;;;5027661;28;20631;-56
2023/09/09 07:30:30;;;;;;;8.03;7.10;;;;;;;;;;5028408;28;20484;-57
2023/09/09 07:32:58;;;;;;;8.60;7.80;;;;;;;;;;5025739;28;21243;-56
2023/09/09 07:35:25;;;;;;;8.10;7.20;;;;;;;;;;5027511;28;20488;-57
2023/09/09 07:37:52;;;;;;;8.67;7.80;;;;;;;;;;5030000;28;20462;-56
2023/09/09 07:40:19;;;;;;;8.40;7.57;;;;;;;;;;5029574;28;20438;-57
2023/09/09 07:42:48;;;;;;;10.43;8.57;;;;;;;;;;5029579;28;20438;-57
2023/09/09 07:45:15;;;;;;;8.63;7.57;;;;;;;;;;5028993;28;20497;-57
2023/09/09 07:47:43;;;;;;;8.77;7.60;;;;;;;;;;5017525;28;20509;-57
2023/09/09 07:50:11;;;;;;;9.67;8.70;;;;;;;;;;5029977;28;20835;-57
2023/09/09 07:52:38;;;;;;;8.60;7.80;;;;;;;;;;5012262;28;20779;-56
2023/09/09 07:55:05;;;;;;;12.03;8.33;;;;;;;;;;5025029;28;20458;-56
2023/09/09 07:57:33;;;;;;;8.93;7.70;;;;;;;;;;5032326;28;20477;-57
2023/09/09 08:00:03;;;;;;;8.50;7.70;;;;;;;;;;5032521;28;20450;-56
2023/09/09 08:02:30;;;;;;;8.00;7.30;;;;;;;;;;5030998;28;20474;-56
2023/09/09 08:04:58;;;;;;;9.23;7.90;;;;;;;;;;5029523;28;20502;-57
2023/09/09 08:07:25;;;;;;;7.40;6.70;;;;;;;;;;5031552;28;20872;-57
2023/09/09 08:09:52;;;;;;;8.63;7.83;;;;;;;;;;5031824;28;20870;-57
2023/09/09 08:12:19;;;;;;;9.10;7.93;;;;;;;;;;5031328;28;20876;-58
2023/09/09 08:14:47;;;;;;;8.30;7.50;;;;;;;;;;5031898;28;20489;-57
2023/09/09 08:17:16;;;;;;;8.77;7.97;;;;;;;;;;5031743;28;20856;-57
2023/09/09 08:19:43;;;;;;;8.30;7.50;;;;;;;;;;5032751;28;20488;-57
2023/09/09 08:22:11;;;;;;;7.67;6.70;;;;;;;;;;5032810;28;20514;-56
2023/09/09 08:24:38;;;;;;;8.10;7.30;;;;;;;;;;5031211;28;20469;-57
2023/09/09 08:27:06;;;;;;;8.00;7.20;;;;;;;;;;5032255;28;20434;-57
2023/09/09 08:29:33;;;;;;;9.03;8.20;;;;;;;;;;5032078;28;20817;-57
2023/09/09 08:32:00;;;;;;;8.93;8.13;;;;;;;;;;5031624;28;20493;-57
2023/09/09 08:34:29;;;;;;;8.83;8.03;;;;;;;;;;5031506;28;20498;-58
2023/09/09 08:36:56;;;;;;;8.57;7.67;;;;;;;;;;5031265;28;20454;-58
2023/09/09 08:39:24;;;;;;;8.23;7.43;;;;;;;;;;5031755;28;20447;-57
2023/09/09 08:41:58;;;;;;;8.73;7.03;;;;;;;;;;5031627;28;20474;-57
2023/09/09 08:44:30;;;;;;;7.00;6.40;;;;;;;;;;5031416;28;20784;-58
2023/09/09 08:46:57;;;;;;;6.80;6.20;;;;;;;;;;5031708;28;20461;-57
2023/09/09 08:49:25;;;;;;;7.57;6.80;;;;;;;;;;5032143;28;20482;-57
2023/09/09 08:51:55;;;;;;;9.10;7.83;;;;;;;;;;5032318;28;20434;-58
2023/09/09 08:54:23;;;;;;;7.63;6.77;;;;;;;;;;5031823;28;20462;-56
2023/09/09 08:56:50;;;;;;;8.40;7.60;;;;;;;;;;5031834;28;20814;-56
2023/09/09 08:59:17;;;;;;;9.30;8.40;;;;;;;;;;5032022;28;20478;-58
2023/09/09 09:01:45;;;;;;;7.50;6.80;;;;;;;;;;5030800;28;20567;-57
2023/09/09 09:04:13;;;;;;;8.80;7.90;;;;;;;;;;5046906;22;20578;-84
2023/09/09 09:06:41;;;;;;;8.03;7.30;;;;;;;;;;5055881;28;20497;-85
2023/09/09 09:09:10;;;;;;;7.93;7.13;;;;;;;;;;5053598;28;20492;-85
2023/09/09 09:11:38;;;;;;;7.80;7.10;;;;;;;;;;5052941;28;20442;-85
2023/09/09 09:14:08;;;;;;;10.60;8.90;;;;;;;;;;5053301;28;20473;-86
2023/09/09 09:16:39;;;;;;;9.43;8.50;;;;;;;;;;5054961;28;20492;-85
2023/09/09 09:19:07;;;;;;;9.17;8.43;;;;;;;;;;5050271;22;20585;-58
2023/09/09 09:21:35;;;;;;;8.33;7.63;;;;;;;;;;5031753;28;20474;-58
2023/09/09 09:24:03;;;;;;;8.27;7.47;;;;;;;;;;5031911;28;20554;-58
2023/09/09 09:26:31;;;;;;;9.10;7.77;;;;;;;;;;5031503;28;20832;-58
2023/09/09 09:29:04;;;;;;;9.93;7.97;;;;;;;;;;5031498;28;20450;-57
2023/09/09 09:31:31;;;;;;;8.77;7.93;;;;;;;;;;5031776;28;20427;-58
2023/09/09 09:33:59;;;;;;;9.63;8.73;;;;;;;;;;5031576;28;20984;-57
2023/09/09 09:36:27;;;;;;;8.77;7.87;;;;;;;;;;5031556;28;20434;-58
2023/09/09 09:38:55;;;;;;;9.43;8.50;;;;;;;;;;5031455;28;20435;-58
2023/09/09 09:41:23;;;;;;;9.23;8.43;;;;;;;;;;5031017;28;20560;-58
2023/09/09 09:43:52;;;;;;;9.83;8.60;;;;;;;;;;5031223;28;20438;-59
2023/09/09 09:46:20;;;;;;;9.53;8.53;;;;;;;;;;5031044;28;20530;-59
2023/09/09 09:48:48;;;;;;;9.57;8.70;;;;;;;;;;5031223;28;20478;-59
2023/09/09 09:51:15;;;;;;;9.20;8.30;;;;;;;;;;5031401;28;20470;-58
2023/09/09 09:53:52;;;;;;;8.73;7.93;;;;;;;;;;5030892;28;20871;-58
2023/09/09 09:56:19;;;;;;;10.57;9.57;;;;;;;;;;5030904;28;20479;-58
2023/09/09 09:58:47;;;;;;;10.23;9.23;;;;;;;;;;5030915;28;20947;-57
2023/09/09 10:01:16;;;;;;;8.70;7.90;;;;;;;;;;5030184;28;20496;-59
2023/09/09 10:03:48;;;;;;;8.73;7.93;;;;;;;;;;5030658;28;20474;-58
2023/09/09 10:06:18;;;;;;;9.27;8.37;;;;;;;;;;5030788;28;20478;-58
2023/09/09 10:08:48;;;;;;;10.00;9.07;;;;;;;;;;5031255;28;20438;-59
2023/09/09 10:11:16;;;;;;;10.00;8.97;;;;;;;;;;5030698;28;20512;-58
2023/09/09 10:13:45;;;;;;;10.27;9.37;;;;;;;;;;5030766;28;20520;-59
2023/09/09 10:16:13;;;;;;;9.47;8.60;;;;;;;;;;5030397;28;20989;-58
2023/09/09 10:18:43;;;;;;;10.00;9.10;;;;;;;;;;5030686;28;20636;-59
2023/09/09 10:21:10;;;;;;;9.70;8.70;;;;;;;;;;5030268;28;20496;-60
2023/09/09 10:23:38;;;;;;;10.83;9.80;;;;;;;;;;5030663;28;20482;-60
2023/09/09 10:26:05;;;;;;;9.57;8.67;;;;;;;;;;5030790;28;20485;-60
2023/09/09 10:28:33;;;;;;;9.70;8.80;;;;;;;;;;5030353;28;20443;-57
2023/09/09 10:31:01;;;;;;;10.33;9.27;;;;;;;;;;5030699;28;20944;-57
2023/09/09 10:33:29;;;;;;;9.83;8.77;;;;;;;;;;5030527;28;20917;-57
2023/09/09 10:35:59;;;;;;;10.63;9.60;;;;;;;;;;5029698;28;21053;-58
2023/09/09 10:38:27;;;;;;;12.20;10.23;;;;;;;;;;5027315;28;21010;-58
2023/09/09 10:40:54;;;;;;;9.67;8.87;;;;;;;;;;5029000;28;20473;-58
2023/09/09 10:43:22;;;;;;;9.80;8.90;;;;;;;;;;5027979;28;20506;-60
2023/09/09 10:45:51;;;;;;;9.20;8.40;;;;;;;;;;5028545;28;20497;-57
2023/09/09 10:48:21;;;;;;;9.63;8.73;;;;;;;;;;5033083;28;20449;-58
2023/09/09 10:50:49;;;;;;;9.90;9.00;;;;;;;;;;5034142;28;20500;-59
2023/09/09 10:53:19;;;;;;;9.47;8.60;;;;;;;;;;5029706;28;20438;-57
2023/09/09 10:55:47;;;;;;;9.03;8.13;;;;;;;;;;5034412;28;20461;-57
2023/09/09 10:58:18;;;;;;;9.73;8.63;;;;;;;;;;5033261;28;20496;-58
2023/09/09 11:00:46;;;;;;;9.47;8.67;;;;;;;;;;5033107;28;20473;-57
2023/09/09 11:03:15;;;;;;;9.10;8.30;;;;;;;;;;5032632;28;20474;-57
2023/09/09 11:06:02;;;;;;;9.47;8.57;;;;;;;;;;5031904;28;21003;-59
2023/09/09 11:08:36;;;;;;;9.50;7.97;;;;;;;;;;5032192;28;20488;-57
2023/09/09 11:11:10;;;;;;;8.60;7.87;;;;;;;;;;5032314;28;20440;-59
2023/09/09 11:13:54;;;;;;;9.30;8.50;;;;;;;;;;5029211;28;20435;-57
2023/09/09 11:16:28;;;;;;;9.40;8.50;;;;;;;;;;5018115;28;20466;-59
2023/09/09 11:18:56;;;;;;;8.73;7.93;;;;;;;;;;5027025;28;20450;-59
2023/09/09 11:21:23;;;;;;;8.37;7.47;;;;;;;;;;5014157;28;20972;-58
2023/09/09 11:23:52;;;;;;;9.03;8.13;;;;;;;;;;5012955;28;20525;-59
2023/09/09 11:26:19;;;;;;;10.10;9.20;;;;;;;;;;5012919;28;20525;-57
2023/09/09 11:28:47;;;;;;;8.83;8.13;;;;;;;;;;5013533;28;20435;-57
2023/09/09 11:31:15;;;;;;;9.80;8.00;;;;;;;;;;5013345;28;20462;-58
2023/09/09 11:33:42;;;;;;;8.57;7.87;;;;;;;;;;5013937;28;20967;-58
2023/09/09 11:36:10;;;;;;;8.30;7.50;;;;;;;;;;5026013;28;20434;-58
2023/09/09 11:38:38;;;;;;;8.53;7.73;;;;;;;;;;5032905;28;20493;-59
2023/09/09 11:41:07;;;;;;;9.80;8.40;;;;;;;;;;5033539;28;20442;-58
2023/09/09 11:43:34;;;;;;;8.77;7.87;;;;;;;;;;5033541;28;20477;-57
2023/09/09 11:46:02;;;;;;;8.13;7.37;;;;;;;;;;5033446;28;20485;-57
2023/09/09 11:48:29;;;;;;;9.30;8.50;;;;;;;;;;5026946;28;20490;-58
2023/09/09 11:50:56;;;;;;;9.80;8.90;;;;;;;;;;5022555;28;21020;-57
2023/09/09 11:53:24;;;;;;;9.50;8.50;;;;;;;;;;5024768;28;20446;-58
2023/09/09 11:55:56;;;;;;;9.60;8.60;;;;;;;;;;5028154;28;20489;-60
2023/09/09 11:58:24;;;;;;;8.93;8.07;;;;;;;;;;5032452;28;20873;-58
2023/09/09 12:00:52;;;;;;;9.27;8.47;;;;;;;;;;5022310;28;20461;-58
2023/09/09 12:03:22;;;;;;;8.40;7.47;;;;;;;;;;5027877;28;20766;-58
2023/09/09 12:05:50;;;;;;;10.20;9.30;;;;;;;;;;5026351;28;20513;-59
2023/09/09 12:08:17;;;;;;;10.23;8.90;;;;;;;;;;5032958;28;20466;-58
2023/09/09 12:10:45;;;;;;;9.93;9.03;;;;;;;;;;5032586;28;20480;-57
2023/09/09 12:13:13;;;;;;;10.80;9.90;;;;;;;;;;5026404;28;20457;-59
2023/09/09 12:15:42;;;;;;;10.53;9.43;;;;;;;;;;5031598;28;20972;-57
2023/09/09 12:18:11;;;;;;;10.53;9.63;;;;;;;;;;5012479;28;20482;-58
2023/09/09 12:20:58;;;;;;;10.50;9.60;;;;;;;;;;5025573;28;20548;-57
2023/09/09 12:23:29;;;;;;;10.80;9.80;;;;;;;;;;5022564;28;20509;-57
2023/09/09 12:25:56;;;;;;;10.13;9.17;;;;;;;;;;5032365;28;20999;-57
2023/09/09 12:28:24;;;;;;;10.87;9.77;;;;;;;;;;5032431;28;20778;-58
2023/09/09 12:30:52;;;;;;;10.40;9.57;;;;;;;;;;5032936;28;20478;-59
2023/09/09 12:33:20;;;;;;;9.90;9.10;;;;;;;;;;5032811;28;20881;-58
2023/09/09 12:35:48;;;;;;;10.10;9.20;;;;;;;;;;5031219;28;20553;-59
2023/09/09 12:38:15;;;;;;;9.87;8.83;;;;;;;;;;5031510;28;20869;-59
2023/09/09 12:40:49;;;;;;;9.73;8.83;;;;;;;;;;5031448;28;20444;-58
2023/09/09 12:43:19;;;;;;;9.93;9.03;;;;;;;;;;5031551;28;20509;-57
2023/09/09 12:45:49;;;;;;;10.60;9.33;;;;;;;;;;5031385;28;20551;-58
2023/09/09 12:48:18;;;;;;;9.57;8.60;;;;;;;;;;5030169;28;20466;-59
2023/09/09 12:50:46;;;;;;;10.40;9.50;;;;;;;;;;5027797;28;20470;-59
2023/09/09 12:53:13;;;;;;;9.63;8.63;;;;;;;;;;5029281;28;20462;-58
2023/09/09 12:55:40;;;;;;;10.57;9.57;;;;;;;;;;5031602;28;20482;-59
2023/09/09 12:58:07;;;;;;;9.47;8.57;;;;;;;;;;5031882;28;20636;-59
2023/09/09 13:00:35;;;;;;;9.60;8.80;;;;;;;;;;5031699;28;20430;-59
2023/09/09 13:03:03;;;;;;;9.70;8.80;;;;;;;;;;5023710;28;20511;-57
2023/09/09 13:05:33;;;;;;;9.83;8.90;;;;;;;;;;5030930;28;20496;-58
2023/09/09 13:08:00;;;;;;;9.80;8.90;;;;;;;;;;5031467;28;20438;-59
2023/09/09 13:10:27;;;;;;;10.53;9.63;;;;;;;;;;5031152;28;20821;-58
2023/09/09 13:12:55;;;;;;;9.63;8.83;;;;;;;;;;5028367;28;20477;-59
2023/09/09 13:15:23;;;;;;;9.70;8.73;;;;;;;;;;5031300;28;20996;-57
2023/09/09 13:17:52;;;;;;;9.03;8.23;;;;;;;;;;5027293;28;20783;-58
2023/09/09 13:20:19;;;;;;;9.70;8.90;;;;;;;;;;5030951;28;20438;-58
2023/09/09 13:22:47;;;;;;;10.53;9.63;;;;;;;;;;5031042;28;20563;-59
2023/09/09 13:25:15;;;;;;;10.50;9.50;;;;;;;;;;5028745;28;20454;-58
2023/09/09 13:27:42;;;;;;;10.10;9.30;;;;;;;;;;5030718;28;20964;-58
2023/09/09 13:30:10;;;;;;;10.70;9.70;;;;;;;;;;5030916;28;20457;-59
2023/09/09 13:32:37;;;;;;;9.23;8.43;;;;;;;;;;5030926;28;20462;-59
2023/09/09 13:35:05;;;;;;;10.13;9.23;;;;;;;;;;5030656;28;20486;-58
2023/09/09 13:37:32;;;;;;;10.00;9.20;;;;;;;;;;5030499;28;20473;-59
2023/09/09 13:40:01;;;;;;;10.27;9.33;;;;;;;;;;5030289;28;20462;-58
2023/09/09 13:42:28;;;;;;;10.27;9.37;;;;;;;;;;5030856;28;20466;-59
2023/09/09 13:44:55;;;;;;;9.67;8.83;;;;;;;;;;5030718;28;20901;-58
2023/09/09 13:47:23;;;;;;;10.10;9.20;;;;;;;;;;5030428;28;20470;-59
2023/09/09 13:49:50;;;;;;;11.70;9.40;;;;;;;;;;5030738;28;20648;-58
2023/09/09 13:52:17;;;;;;;9.87;9.07;;;;;;;;;;5030236;28;20880;-60
2023/09/09 13:54:46;;;;;;;9.37;8.47;;;;;;;;;;5029739;28;20552;-59
2023/09/09 13:57:15;;;;;;;9.50;8.40;;;;;;;;;;5030635;28;20446;-59
2023/09/09 13:59:43;;;;;;;9.73;8.50;;;;;;;;;;5030832;28;20469;-57
2023/09/09 14:02:10;;;;;;;8.70;7.90;;;;;;;;;;5030532;28;20462;-59
2023/09/09 14:04:38;;;;;;;10.10;9.10;;;;;;;;;;5030340;28;20517;-58
2023/09/09 14:07:05;;;;;;;9.83;8.93;;;;;;;;;;5030024;28;20485;-60
2023/09/09 14:09:32;;;;;;;8.17;7.40;;;;;;;;;;5030205;28;20473;-59
2023/09/09 14:12:00;;;;;;;8.50;7.70;;;;;;;;;;5029738;28;20978;-60
2023/09/09 14:14:28;;;;;;;8.50;7.80;;;;;;;;;;5030562;28;20482;-59
2023/09/09 14:16:56;;;;;;;8.43;7.70;;;;;;;;;;5029743;28;20470;-60
2023/09/09 14:19:24;;;;;;;11.60;7.90;;;;;;;;;;5029567;28;20450;-60
2023/09/09 14:21:51;;;;;;;9.00;8.17;;;;;;;;;;5029606;28;20474;-58
2023/09/09 14:24:18;;;;;;;9.20;8.30;;;;;;;;;;5030101;28;20488;-59
2023/09/09 14:26:45;;;;;;;7.90;7.10;;;;;;;;;;5029951;28;20466;-57
2023/09/09 14:29:13;;;;;;;8.10;7.40;;;;;;;;;;5030253;28;20967;-59
2023/09/09 14:31:41;;;;;;;7.63;7.03;;;;;;;;;;5029702;28;20478;-58
2023/09/09 14:34:09;;;;;;;8.80;8.00;;;;;;;;;;5030273;28;20547;-59
2023/09/09 14:36:36;;;;;;;7.90;7.20;;;;;;;;;;5030130;28;20892;-59
2023/09/09 14:39:04;;;;;;;7.87;7.17;;;;;;;;;;5029890;28;20795;-58
2023/09/09 14:41:31;;;;;;;8.83;8.13;;;;;;;;;;5029735;28;20983;-59
2023/09/09 14:43:58;;;;;;;8.50;7.77;;;;;;;;;;5029926;28;20509;-59
2023/09/09 14:46:27;;;;;;;7.33;6.63;;;;;;;;;;5027154;28;20466;-58